createdAt,value
2019-02-14T00:02:48.821Z,963.3
2019-02-14T00:05:54.890Z,963.4
2019-02-14T00:09:00.845Z,963.3
2019-02-14T00:12:06.802Z,963.2
2019-02-14T00:15:12.767Z,963.3
2019-02-14T00:18:18.825Z,963.3
2019-02-14T00:21:24.784Z,963.2
2019-02-14T00:24:30.747Z,963.2
2019-02-14T00:27:36.714Z,963.2
2019-02-14T00:30:42.770Z,963.1
2019-02-14T00:33:48.731Z,963.1
2019-02-14T00:36:54.687Z,963.1
2019-02-14T00:40:00.906Z,963.2
2019-02-14T00:43:06.778Z,963.2
2019-02-14T00:46:12.791Z,963.1
2019-02-14T00:49:18.836Z,963.1
2019-02-14T00:52:24.903Z,963.1
2019-02-14T00:55:30.857Z,963.1
2019-02-14T00:58:36.819Z,963.1
2019-02-14T01:01:42.691Z,963.1
2019-02-14T01:04:48.634Z,963
2019-02-14T01:07:54.508Z,963
2019-02-14T01:11:00.610Z,963
2019-02-14T01:14:06.485Z,963
2019-02-14T01:17:12.497Z,963
2019-02-14T01:20:18.455Z,962.9
2019-02-14T01:23:24.500Z,962.9
2019-02-14T01:26:30.456Z,962.9
2019-02-14T01:29:36.467Z,962.9
2019-02-14T01:32:42.481Z,962.8
2019-02-14T01:35:48.436Z,962.8
2019-02-14T01:38:54.396Z,962.8
2019-02-14T01:42:00.355Z,962.8
2019-02-14T01:45:06.318Z,962.7
2019-02-14T01:48:12.285Z,962.8
2019-02-14T01:51:18.238Z,962.8
2019-02-14T01:54:24.251Z,962.8
2019-02-14T01:57:30.170Z,962.9
2019-02-14T02:00:36.065Z,962.9
2019-02-14T02:03:42.029Z,962.8
2019-02-14T02:06:48.034Z,962.7
2019-02-14T02:09:53.907Z,962.6
2019-02-14T02:13:00.013Z,962.7
2019-02-14T02:16:05.875Z,962.6
2019-02-14T02:19:11.886Z,962.6
2019-02-14T02:22:17.832Z,962.7
2019-02-14T02:25:23.791Z,962.6
2019-02-14T02:28:32.781Z,962.6
2019-02-14T02:31:38.788Z,962.6
2019-02-14T02:34:44.749Z,962.5
2019-02-14T02:37:50.704Z,962.5
2019-02-14T02:40:59.331Z,962.4
2019-02-14T02:44:05.312Z,962.4
2019-02-14T02:47:13.194Z,962.3
2019-02-14T02:50:19.062Z,962.4
2019-02-14T02:53:25.117Z,962.4
2019-02-14T02:56:30.989Z,962.4
2019-02-14T02:59:37.033Z,962.6
2019-02-14T03:02:42.994Z,962.5
2019-02-14T03:05:49.056Z,962.5
2019-02-14T03:08:55.017Z,962.6
2019-02-14T03:12:00.976Z,962.7
2019-02-14T03:15:06.958Z,962.8
2019-02-14T03:18:12.900Z,962.8
2019-02-14T03:21:18.960Z,962.8
2019-02-14T03:24:24.925Z,962.8
2019-02-14T03:27:30.878Z,962.8
2019-02-14T03:30:36.839Z,962.8
2019-02-14T03:33:42.702Z,962.8
2019-02-14T03:36:48.651Z,962.7
2019-02-14T03:39:54.596Z,962.6
2019-02-14T03:43:00.569Z,962.7
2019-02-14T03:46:06.529Z,962.6
2019-02-14T03:49:12.595Z,962.7
2019-02-14T03:52:18.551Z,962.6
2019-02-14T03:55:24.611Z,962.6
2019-02-14T03:58:30.569Z,962.6
2019-02-14T04:01:36.539Z,962.6
2019-02-14T04:04:42.492Z,962.6
2019-02-14T04:07:48.452Z,962.6
2019-02-14T04:10:54.394Z,962.6
2019-02-14T04:14:00.408Z,962.5
2019-02-14T04:17:08.997Z,962.6
2019-02-14T04:20:14.953Z,962.6
2019-02-14T04:23:20.888Z,962.7
2019-02-14T04:26:26.871Z,962.7
2019-02-14T04:29:32.833Z,962.7
2019-02-14T04:32:38.713Z,962.6
2019-02-14T04:35:47.618Z,962.6
2019-02-14T04:38:53.498Z,962.5
2019-02-14T04:41:59.434Z,962.6
2019-02-14T04:45:08.161Z,962.6
2019-02-14T04:48:14.221Z,962.5
2019-02-14T04:51:20.100Z,962.5
2019-02-14T04:54:26.034Z,962.5
2019-02-14T04:57:31.996Z,962.5
2019-02-14T05:00:37.869Z,962.6
2019-02-14T05:03:45.456Z,962.5
2019-02-14T05:06:51.415Z,962.5
2019-02-14T05:09:57.429Z,962.5
2019-02-14T05:13:03.444Z,962.5
2019-02-14T05:16:09.319Z,962.4
2019-02-14T05:19:15.262Z,962.5
2019-02-14T05:22:21.136Z,962.6
2019-02-14T05:25:27.074Z,962.6
2019-02-14T05:28:33.134Z,962.7
2019-02-14T05:31:39.010Z,962.7
2019-02-14T05:34:45.051Z,962.8
2019-02-14T05:37:51.026Z,962.8
2019-02-14T05:40:57.996Z,962.9
2019-02-14T05:44:04.057Z,962.9
2019-02-14T05:47:09.933Z,962.9
2019-02-14T05:50:15.874Z,962.8
2019-02-14T05:53:21.879Z,962.9
2019-02-14T05:56:27.899Z,962.9
2019-02-14T05:59:33.765Z,962.9
2019-02-14T06:02:39.715Z,962.9
2019-02-14T06:05:45.777Z,962.9
2019-02-14T06:08:51.654Z,962.9
2019-02-14T06:11:57.697Z,962.9
2019-02-14T06:15:03.646Z,962.9
2019-02-14T06:18:09.633Z,962.8
2019-02-14T06:21:15.671Z,962.9
2019-02-14T06:24:21.731Z,962.9
2019-02-14T06:27:27.613Z,962.9
2019-02-14T06:30:33.553Z,962.9
2019-02-14T06:33:39.834Z,962.9
2019-02-14T06:36:47.334Z,962.9
2019-02-14T06:39:53.697Z,962.9
2019-02-14T06:42:59.571Z,962.9
2019-02-14T06:46:05.513Z,962.9
2019-02-14T06:49:11.575Z,962.9
2019-02-14T06:52:17.533Z,962.9
2019-02-14T06:55:23.465Z,962.8
2019-02-14T06:58:29.343Z,962.8
2019-02-14T07:01:35.362Z,962.8
2019-02-14T07:04:41.270Z,962.7
2019-02-14T07:07:47.176Z,962.7
2019-02-14T07:10:53.176Z,962.6
2019-02-14T07:14:00.575Z,962.8
2019-02-14T07:17:06.527Z,962.7
2019-02-14T07:20:12.497Z,962.7
2019-02-14T07:23:18.475Z,962.6
2019-02-14T07:26:24.516Z,962.5
2019-02-14T07:32:36.865Z,962.4
2019-02-14T07:35:42.875Z,962.4
2019-02-14T07:38:48.873Z,962.4
2019-02-14T07:41:54.805Z,962.4
2019-02-14T07:45:00.862Z,962.3
2019-02-14T07:48:06.888Z,962.3
2019-02-14T07:51:12.911Z,962.2
2019-02-14T07:54:18.868Z,962.2
2019-02-14T07:57:24.831Z,962.1
2019-02-14T08:00:30.898Z,962.2
2019-02-14T08:03:36.800Z,962.1
2019-02-14T08:06:44.809Z,962
2019-02-14T08:09:50.817Z,961.9
2019-02-14T08:12:56.701Z,962
2019-02-14T08:16:03.821Z,961.9
2019-02-14T08:19:09.826Z,961.9
2019-02-14T08:22:15.989Z,961.9
2019-02-14T08:25:22.938Z,961.9
2019-02-14T08:28:29.038Z,961.8
2019-02-14T08:31:35.014Z,961.8
2019-02-14T08:34:41.014Z,961.8
2019-02-14T08:37:47.439Z,961.9
2019-02-14T08:40:55.209Z,961.8
2019-02-14T08:44:01.392Z,961.9
2019-02-14T08:47:07.355Z,961.8
2019-02-14T08:50:13.414Z,961.7
2019-02-14T08:53:19.380Z,961.6
2019-02-14T08:56:26.450Z,961.7
2019-02-14T08:59:32.726Z,961.7
2019-02-14T09:02:40.838Z,961.7
2019-02-14T09:05:46.861Z,961.7
2019-02-14T09:08:55.165Z,961.7
2019-02-14T09:12:01.193Z,961.7
2019-02-14T09:15:07.188Z,961.6
2019-02-14T09:18:13.248Z,961.5
2019-02-14T09:21:19.157Z,961.5
2019-02-14T09:24:25.183Z,961.4
2019-02-14T09:27:31.138Z,961.4
2019-02-14T09:30:37.037Z,961.4
2019-02-14T09:33:42.965Z,961.4
2019-02-14T09:36:49.167Z,961.3
2019-02-14T09:39:57.580Z,961.3
2019-02-14T09:43:03.601Z,961.3
2019-02-14T09:46:09.654Z,961.2
2019-02-14T09:49:15.880Z,961.1
2019-02-14T09:52:21.784Z,961.2
2019-02-14T09:55:28.115Z,961.2
2019-02-14T09:58:34.112Z,961.1
2019-02-14T10:01:40.000Z,961
2019-02-14T10:04:46.032Z,961
2019-02-14T10:07:52.044Z,960.9
2019-02-14T10:10:58.192Z,960.8
2019-02-14T10:14:04.929Z,960.8
2019-02-14T10:17:22.586Z,960.8
2019-02-14T10:20:28.630Z,960.7
2019-02-14T10:23:34.501Z,960.6
2019-02-14T10:26:40.499Z,960.5
2019-02-14T10:29:46.459Z,960.4
2019-02-14T10:32:52.533Z,960.4
2019-02-14T10:35:58.609Z,960.4
2019-02-14T10:39:06.752Z,960.3
2019-02-14T10:42:12.767Z,960.2
2019-02-14T10:45:18.879Z,960.2
2019-02-14T10:48:24.894Z,960.1
2019-02-14T10:51:30.894Z,960.1
2019-02-14T10:54:36.774Z,960.1
2019-02-14T10:57:43.041Z,960.1
2019-02-14T11:00:49.030Z,960.1
2019-02-14T11:03:54.916Z,960
2019-02-14T11:07:00.856Z,960
2019-02-14T11:10:06.855Z,960
2019-02-14T11:13:12.931Z,960
2019-02-14T11:16:18.935Z,960
2019-02-14T11:19:24.893Z,960
2019-02-14T11:22:30.910Z,959.9
2019-02-14T11:25:37.132Z,959.9
2019-02-14T11:28:43.239Z,959.8
2019-02-14T11:31:49.295Z,959.8
2019-02-14T11:34:55.311Z,959.7
2019-02-14T11:38:01.190Z,959.8
2019-02-14T11:41:08.350Z,959.7
2019-02-14T11:44:14.411Z,959.7
2019-02-14T11:47:20.298Z,959.6
2019-02-14T11:50:26.295Z,959.6
2019-02-14T11:53:32.602Z,959.4
2019-02-14T11:56:38.732Z,959.4
2019-02-14T11:59:45.587Z,959.4
2019-02-14T12:02:57.085Z,959.3
2019-02-14T12:06:03.094Z,959.3
2019-02-14T12:09:09.171Z,959.3
2019-02-14T12:12:15.083Z,959.3
2019-02-14T12:15:25.384Z,959.2
2019-02-14T12:18:33.440Z,959.2
2019-02-14T12:21:39.505Z,959.2
2019-02-14T12:24:48.686Z,959.2
2019-02-14T12:27:54.759Z,959.2
2019-02-14T12:31:00.712Z,959.2
2019-02-14T12:34:06.873Z,959.2
2019-02-14T12:37:13.757Z,959.2
2019-02-14T12:40:21.930Z,959.2
2019-02-14T12:43:29.379Z,959.2
2019-02-14T12:46:39.114Z,959.1
2019-02-14T12:49:45.152Z,959.2
2019-02-14T12:52:51.151Z,959.2
2019-02-14T12:55:58.100Z,959.2
2019-02-14T12:59:04.234Z,959.1
2019-02-14T13:02:10.300Z,959.2
2019-02-14T13:05:16.313Z,959.1
2019-02-14T13:08:22.403Z,959.1
2019-02-14T13:11:28.429Z,959.1
2019-02-14T13:14:34.367Z,959
2019-02-14T13:17:40.393Z,959.1
2019-02-14T13:20:46.512Z,959.1
2019-02-14T13:23:52.570Z,959.1
2019-02-14T13:26:59.649Z,959.1
2019-02-14T13:30:05.544Z,959
2019-02-14T13:33:11.698Z,959
2019-02-14T13:36:17.570Z,959.1
2019-02-14T13:39:33.211Z,959
2019-02-14T13:42:39.288Z,959.1
2019-02-14T13:45:45.245Z,959.1
2019-02-14T13:48:51.318Z,959.1
2019-02-14T13:51:57.372Z,959.1
2019-02-14T13:55:03.648Z,959.1
2019-02-14T13:58:09.707Z,959.1
2019-02-14T14:01:15.697Z,959.1
2019-02-14T14:04:21.599Z,959
2019-02-14T14:07:27.583Z,959
2019-02-14T14:10:43.887Z,958.9
2019-02-14T14:13:51.038Z,959
2019-02-14T14:16:58.153Z,959
2019-02-14T14:20:04.067Z,958.9
2019-02-14T14:23:11.101Z,958.8
2019-02-14T14:26:17.173Z,958.8
2019-02-14T14:29:23.154Z,958.8
2019-02-14T14:32:29.354Z,958.8
2019-02-14T14:35:38.090Z,958.7
2019-02-14T14:38:44.231Z,958.7
2019-02-14T14:41:50.127Z,958.7
2019-02-14T14:44:56.261Z,958.8
2019-02-14T14:48:02.222Z,958.7
2019-02-14T14:51:08.228Z,958.8
2019-02-14T14:54:14.209Z,958.7
2019-02-14T14:57:20.147Z,958.8
2019-02-14T15:00:26.105Z,958.9
2019-02-14T15:03:33.082Z,958.9
2019-02-14T15:06:40.171Z,958.9
2019-02-14T15:09:58.002Z,958.9
2019-02-14T15:13:03.972Z,958.9
2019-02-14T15:16:10.284Z,958.9
2019-02-14T15:19:16.617Z,959
2019-02-14T15:22:22.527Z,958.9
2019-02-14T15:25:28.467Z,959
2019-02-14T15:28:34.525Z,959
2019-02-14T15:31:42.408Z,959.1
2019-02-14T15:34:48.378Z,959
2019-02-14T15:37:54.438Z,959
2019-02-14T15:41:00.528Z,959
2019-02-14T15:44:06.541Z,959.1
2019-02-14T15:47:12.613Z,959
2019-02-14T15:50:18.573Z,959.1
2019-02-14T15:53:24.447Z,959.1
2019-02-14T15:56:32.225Z,959.2
2019-02-14T15:59:45.889Z,959.2
2019-02-14T16:02:53.664Z,959.2
2019-02-14T16:05:59.731Z,959.2
2019-02-14T16:09:12.268Z,959.2
2019-02-14T16:12:23.012Z,959.1
2019-02-14T16:15:34.461Z,959.1
2019-02-14T16:18:40.467Z,959.3
2019-02-14T16:21:56.614Z,959.3
2019-02-14T16:25:06.904Z,959.3
2019-02-14T16:28:14.930Z,959.2
2019-02-14T16:31:20.892Z,959.2
2019-02-14T16:34:26.854Z,959.3
2019-02-14T16:37:32.817Z,959.4
2019-02-14T16:40:39.999Z,959.3
2019-02-14T16:43:45.963Z,959.3
2019-02-14T16:46:51.834Z,959.3
2019-02-14T16:49:57.778Z,959.4
2019-02-14T16:53:03.803Z,959.4
2019-02-14T16:56:09.801Z,959.3
2019-02-14T16:59:15.679Z,959.3
2019-02-14T17:02:21.720Z,959.3
2019-02-14T17:05:27.611Z,959.3
2019-02-14T17:08:33.638Z,959.2
2019-02-14T17:11:39.575Z,959.2
2019-02-14T17:14:45.569Z,959.2
2019-02-14T17:17:51.447Z,959.1
2019-02-14T17:20:57.375Z,959.1
2019-02-14T17:24:03.447Z,959.2
2019-02-14T17:27:09.319Z,959.2
2019-02-14T17:30:15.407Z,959.1
2019-02-14T17:33:21.417Z,959.2
2019-02-14T17:36:27.385Z,959.3
2019-02-14T17:39:33.449Z,959.2
2019-02-14T17:42:39.335Z,959.2
2019-02-14T17:45:45.276Z,959.2
2019-02-14T17:48:51.147Z,959.1
2019-02-14T17:51:57.288Z,959.1
2019-02-14T17:55:03.246Z,959.1
2019-02-14T17:58:09.205Z,959.1
2019-02-14T18:01:15.087Z,959.2
2019-02-14T18:04:21.024Z,959.1
2019-02-14T18:07:27.089Z,959.1
2019-02-14T18:10:33.147Z,959.1
2019-02-14T18:13:39.069Z,959.1
2019-02-14T18:16:45.167Z,959
2019-02-14T18:19:51.056Z,959.1
2019-02-14T18:22:56.989Z,959
2019-02-14T18:26:02.948Z,959
2019-02-14T18:29:09.005Z,958.9
2019-02-14T18:32:14.965Z,958.9
2019-02-14T18:35:20.847Z,959
2019-02-14T18:38:26.884Z,959
2019-02-14T18:41:34.532Z,959
2019-02-14T18:44:40.544Z,958.9
2019-02-14T18:47:46.605Z,959
2019-02-14T18:50:52.565Z,959
2019-02-14T18:53:58.461Z,959
2019-02-14T18:57:04.491Z,958.9
2019-02-14T19:00:10.369Z,958.9
2019-02-14T19:03:16.413Z,958.9
2019-02-14T19:06:22.349Z,958.9
2019-02-14T19:09:28.229Z,958.9
2019-02-14T19:12:34.195Z,958.9
2019-02-14T19:15:40.170Z,958.9
2019-02-14T19:18:46.206Z,958.8
2019-02-14T19:21:52.166Z,958.8
2019-02-14T19:24:58.129Z,958.9
2019-02-14T19:28:04.101Z,958.9
2019-02-14T19:31:10.000Z,958.9
2019-02-14T19:34:16.163Z,958.9
2019-02-14T19:37:22.124Z,958.9
2019-02-14T19:40:28.145Z,958.9
2019-02-14T19:43:34.333Z,958.8
2019-02-14T19:46:40.365Z,958.8
2019-02-14T19:49:46.328Z,958.7
2019-02-14T19:52:52.390Z,958.7
2019-02-14T19:55:58.270Z,958.7
2019-02-14T19:59:04.364Z,958.6
2019-02-14T20:02:10.256Z,958.8
2019-02-14T20:05:16.222Z,958.8
2019-02-14T20:08:22.284Z,958.8
2019-02-14T20:11:38.235Z,958.8
2019-02-14T20:14:44.365Z,958.8
2019-02-14T20:17:50.286Z,958.8
2019-02-14T20:20:56.265Z,958.8
2019-02-14T20:24:02.226Z,958.8
2019-02-14T20:27:08.189Z,958.7
2019-02-14T20:30:14.248Z,958.7
2019-02-14T20:33:20.137Z,958.8
2019-02-14T20:36:26.174Z,958.8
2019-02-14T20:39:32.037Z,958.8
2019-02-14T20:42:38.112Z,958.9
2019-02-14T20:45:43.973Z,958.9
2019-02-14T20:48:50.006Z,958.9
2019-02-14T20:51:55.878Z,958.8
2019-02-14T20:55:01.878Z,958.8
2019-02-14T20:58:07.781Z,958.7
2019-02-14T21:01:13.743Z,958.6
2019-02-14T21:04:21.251Z,958.6
2019-02-14T21:07:27.840Z,958.5
2019-02-14T21:10:33.775Z,958.6
2019-02-14T21:13:39.730Z,958.6
2019-02-14T21:16:45.693Z,958.6
2019-02-14T21:19:51.575Z,958.6
2019-02-14T21:22:57.646Z,958.6
2019-02-14T21:26:03.633Z,958.6
2019-02-14T21:29:09.574Z,958.6
2019-02-14T21:32:15.750Z,958.7
2019-02-14T21:35:21.818Z,958.7
2019-02-14T21:38:27.987Z,958.6
2019-02-14T21:41:33.904Z,958.5
2019-02-14T21:44:40.106Z,958.5
2019-02-14T21:47:46.179Z,958.5
2019-02-14T21:50:52.339Z,958.5
2019-02-14T21:53:58.593Z,958.5
2019-02-14T21:57:04.617Z,958.5
2019-02-14T22:00:10.723Z,958.5
2019-02-14T22:03:16.706Z,958.3
2019-02-14T22:06:22.900Z,958.4
2019-02-14T22:09:29.034Z,958.4
2019-02-14T22:12:44.516Z,958.3
2019-02-14T22:15:50.731Z,958.3
2019-02-14T22:18:56.816Z,958.2
2019-02-14T22:22:02.733Z,958.2
2019-02-14T22:25:08.607Z,958.2
2019-02-14T22:28:14.766Z,958.2
2019-02-14T22:31:20.816Z,958.2
2019-02-14T22:34:26.793Z,958.2
2019-02-14T22:37:32.843Z,958.2
2019-02-14T22:40:38.809Z,958.3
2019-02-14T22:43:44.788Z,958.3
2019-02-14T22:46:50.663Z,958.3
2019-02-14T22:49:56.678Z,958.2
2019-02-14T22:53:02.646Z,958.2
2019-02-14T22:56:08.651Z,958.2
2019-02-14T22:59:14.567Z,958.1
2019-02-14T23:02:20.525Z,958.1
2019-02-14T23:05:26.480Z,958.1
2019-02-14T23:08:32.366Z,958.1
2019-02-14T23:11:38.401Z,958.2
2019-02-14T23:14:44.269Z,958.2
2019-02-14T23:17:50.239Z,958.2
2019-02-14T23:20:56.178Z,958.3
2019-02-14T23:24:02.050Z,958.3
2019-02-14T23:27:07.994Z,958.3
2019-02-14T23:30:13.865Z,958.2
2019-02-14T23:33:19.918Z,958.3
2019-02-14T23:36:25.794Z,958.2
2019-02-14T23:39:31.706Z,958.1
2019-02-14T23:42:37.668Z,958.1
2019-02-14T23:45:43.661Z,958.2
2019-02-14T23:48:49.614Z,958.2
2019-02-14T23:51:55.575Z,958.2
2019-02-14T23:55:04.144Z,958.1
2019-02-14T23:58:10.052Z,958.1
